sim
Sign-in with your pilot id or email,
or register
Callsign
Passwort

Schedule Details

Flight Number: OEO4707
Departure: Dublin Airport (EIDW) at 14:30
Arrival: Munich Airport (EDDM) at 16:45

Weather Information
Getting current METAR information for EIDW 250400Z 29009KT 9999 FEW014 04/03 Q1007 NOSIG
Getting current METAR information for EDDM 250350Z 21005KT 9999 -RA SCT040 13/12 Q1001 NOSIG

Schedule Frequency

Route Map